Time;durP1;ratioP1;P1;durP2;ratioP2;P2;SDS_P1;SDS_P2;PMS_P1;PMS_P2;Temp;Humidity;BMP_temperature;BMP_pressure;BME280_temperature;BME280_humidity;BME280_pressure;Samples;Min_cycle;Max_cycle;Signal;HPM_P1;HPM_P2
2021/01/25 00:02:02;;;;;;;3.57;2.40;;;;;;;;;;4833405;29;20541;-86
2021/01/25 00:05:07;;;;;;;4.77;2.23;;;;;;;;;;4822486;29;20968;-86
2021/01/25 00:08:11;;;;;;;8.17;3.00;;;;;;;;;;4822610;29;20561;-86
2021/01/25 00:11:16;;;;;;;4.53;2.33;;;;;;;;;;4833134;29;20596;-86
2021/01/25 00:14:20;;;;;;;3.03;2.27;;;;;;;;;;4832650;29;20561;-86
2021/01/25 00:17:25;;;;;;;2.97;2.13;;;;;;;;;;4822161;29;20561;-86
2021/01/25 00:20:28;;;;;;;4.20;2.50;;;;;;;;;;4822439;29;20545;-86
2021/01/25 00:23:33;;;;;;;3.07;2.30;;;;;;;;;;4832726;29;20897;-86
2021/01/25 00:26:37;;;;;;;4.33;2.57;;;;;;;;;;4837283;29;20662;-86
2021/01/25 00:29:41;;;;;;;3.97;2.70;;;;;;;;;;4840577;29;20557;-86
2021/01/25 00:32:46;;;;;;;4.53;2.43;;;;;;;;;;4850968;29;20544;-86
2021/01/25 00:35:50;;;;;;;4.70;2.97;;;;;;;;;;4872010;29;20623;-86
2021/01/25 00:38:54;;;;;;;3.87;2.40;;;;;;;;;;4861631;29;20540;-86
2021/01/25 00:41:58;;;;;;;3.27;2.47;;;;;;;;;;4861077;29;20540;-86
2021/01/25 00:45:05;;;;;;;5.40;2.77;;;;;;;;;;4850271;29;20623;-86
2021/01/25 00:48:09;;;;;;;6.17;2.93;;;;;;;;;;4861005;29;20600;-85
2021/01/25 00:51:13;;;;;;;4.97;2.50;;;;;;;;;;4840605;29;20925;-86
2021/01/25 00:54:17;;;;;;;4.37;2.80;;;;;;;;;;4850472;29;20552;-85
2021/01/25 00:57:21;;;;;;;5.13;2.87;;;;;;;;;;4850761;29;20556;-86
2021/01/25 01:00:26;;;;;;;3.35;2.55;;;;;;;;;;4850334;29;20603;-86
2021/01/25 01:03:30;;;;;;;3.87;3.00;;;;;;;;;;4850311;29;20183;-86
2021/01/25 01:06:35;;;;;;;3.53;2.67;;;;;;;;;;4850126;29;20654;-86
2021/01/25 01:09:39;;;;;;;3.77;2.43;;;;;;;;;;4860604;29;20615;-86
2021/01/25 01:12:43;;;;;;;3.57;2.57;;;;;;;;;;4850422;29;20988;-86
2021/01/25 01:15:47;;;;;;;5.75;2.83;;;;;;;;;;4839972;29;20627;-86
2021/01/25 01:18:52;;;;;;;7.20;2.90;;;;;;;;;;4839768;29;20203;-86
2021/01/25 01:21:56;;;;;;;5.60;2.50;;;;;;;;;;4850054;29;20599;-86
2021/01/25 01:25:00;;;;;;;7.38;2.88;;;;;;;;;;4839647;29;20190;-86
2021/01/25 01:28:04;;;;;;;6.53;3.13;;;;;;;;;;4839705;29;20195;-86
2021/01/25 01:31:09;;;;;;;4.53;2.78;;;;;;;;;;4850130;29;20604;-86
2021/01/25 01:34:13;;;;;;;3.50;2.97;;;;;;;;;;4850326;29;20186;-86
2021/01/25 01:37:17;;;;;;;4.10;2.92;;;;;;;;;;4860659;29;20183;-86
2021/01/25 01:40:21;;;;;;;5.05;3.13;;;;;;;;;;4860408;29;20187;-86
2021/01/25 01:43:26;;;;;;;4.30;2.85;;;;;;;;;;4839397;29;20187;-86
2021/01/25 01:46:34;;;;;;;3.00;2.65;;;;;;;;;;4850132;29;20226;-86
2021/01/25 01:49:39;;;;;;;4.50;3.00;;;;;;;;;;4839634;29;20531;-86
2021/01/25 01:52:46;;;;;;;4.85;2.88;;;;;;;;;;4851760;29;20218;-86
2021/01/25 01:55:51;;;;;;;4.85;2.85;;;;;;;;;;4842847;29;20219;-86
2021/01/25 01:58:55;;;;;;;3.72;2.78;;;;;;;;;;4853322;29;20191;-86
2021/01/25 02:01:59;;;;;;;6.65;3.70;;;;;;;;;;4853541;29;20183;-86
2021/01/25 02:05:04;;;;;;;5.45;2.97;;;;;;;;;;4863871;29;20226;-86
2021/01/25 02:08:09;;;;;;;3.97;2.65;;;;;;;;;;4853289;29;20187;-86
2021/01/25 02:11:15;;;;;;;5.03;2.72;;;;;;;;;;4853215;29;20210;-86
2021/01/25 02:14:20;;;;;;;4.57;3.15;;;;;;;;;;4842760;29;20191;-86
2021/01/25 02:17:30;;;;;;;4.03;2.92;;;;;;;;;;4853494;29;20531;-86
2021/01/25 02:20:40;;;;;;;5.05;2.63;;;;;;;;;;4842618;29;20183;-86
2021/01/25 02:23:53;;;;;;;4.97;3.05;;;;;;;;;;4842388;29;20183;-86
2021/01/25 02:27:22;;;;;;;5.57;2.80;;;;;;;;;;4842451;29;20713;-86
2021/01/25 02:30:26;;;;;;;5.45;2.90;;;;;;;;;;4842596;29;20646;-86
2021/01/25 02:33:34;;;;;;;6.32;3.17;;;;;;;;;;4853069;29;20179;-86
2021/01/25 02:36:38;;;;;;;6.32;3.53;;;;;;;;;;4874432;29;20222;-86
2021/01/25 02:39:44;;;;;;;3.55;2.90;;;;;;;;;;4842538;29;20191;-85
2021/01/25 02:42:52;;;;;;;4.07;2.97;;;;;;;;;;4842265;29;20195;-85
2021/01/25 02:45:57;;;;;;;3.53;2.92;;;;;;;;;;4842403;29;20219;-86
2021/01/25 02:49:02;;;;;;;6.78;3.35;;;;;;;;;;4842323;29;20639;-86
2021/01/25 02:52:06;;;;;;;8.70;3.75;;;;;;;;;;4841754;29;20223;-86
2021/01/25 02:55:11;;;;;;;4.80;3.50;;;;;;;;;;4852582;29;20218;-86
2021/01/25 02:58:15;;;;;;;5.18;3.47;;;;;;;;;;4852408;29;20191;-86
2021/01/25 03:01:19;;;;;;;5.03;3.60;;;;;;;;;;4852787;29;20186;-86
2021/01/25 03:04:24;;;;;;;4.50;3.25;;;;;;;;;;4841178;29;20520;-85
2021/01/25 03:07:29;;;;;;;5.22;3.70;;;;;;;;;;4873601;29;20528;-86
2021/01/25 03:10:33;;;;;;;6.18;3.85;;;;;;;;;;4852303;29;20211;-86
2021/01/25 03:13:36;;;;;;;4.43;3.40;;;;;;;;;;4852417;29;20679;-85
2021/01/25 03:16:40;;;;;;;6.60;4.25;;;;;;;;;;4841458;29;20226;-86
2021/01/25 03:19:44;;;;;;;6.15;3.47;;;;;;;;;;4852242;29;20179;-85
2021/01/25 03:22:49;;;;;;;4.68;3.60;;;;;;;;;;4852005;29;20543;-85
2021/01/25 03:25:53;;;;;;;8.55;3.85;;;;;;;;;;4841503;29;20222;-85
2021/01/25 03:28:57;;;;;;;5.32;3.75;;;;;;;;;;4862242;29;20203;-86
2021/01/25 03:32:01;;;;;;;13.35;3.70;;;;;;;;;;4873219;29;20214;-86
2021/01/25 03:35:08;;;;;;;4.47;3.53;;;;;;;;;;4841410;29;20694;-86
2021/01/25 03:38:13;;;;;;;9.98;4.25;;;;;;;;;;4841377;29;20183;-85
2021/01/25 03:41:17;;;;;;;6.15;3.92;;;;;;;;;;4851494;29;20206;-85
2021/01/25 03:44:21;;;;;;;6.30;3.58;;;;;;;;;;4851785;29;20634;-86
2021/01/25 03:47:25;;;;;;;4.80;3.53;;;;;;;;;;4841433;29;20191;-85
2021/01/25 03:50:31;;;;;;;5.32;3.40;;;;;;;;;;4851740;29;20183;-85
2021/01/25 03:53:35;;;;;;;4.47;3.40;;;;;;;;;;4851301;29;20203;-86
2021/01/25 03:56:40;;;;;;;6.32;3.78;;;;;;;;;;4841055;29;20223;-85
2021/01/25 03:59:44;;;;;;;4.93;3.40;;;;;;;;;;4861812;29;20267;-85
2021/01/25 04:02:48;;;;;;;4.55;3.00;;;;;;;;;;4840924;29;20190;-86
2021/01/25 04:05:53;;;;;;;5.80;3.53;;;;;;;;;;4877804;23;20237;-87
2021/01/25 04:08:57;;;;;;;6.63;3.47;;;;;;;;;;4869755;29;20673;-88
2021/01/25 04:12:02;;;;;;;5.72;3.72;;;;;;;;;;4882151;29;20206;-88
2021/01/25 04:15:07;;;;;;;9.20;3.70;;;;;;;;;;4877127;29;20209;-88
2021/01/25 04:18:11;;;;;;;6.80;3.95;;;;;;;;;;4880218;29;20198;-88
2021/01/25 04:21:15;;;;;;;6.18;3.63;;;;;;;;;;4875139;29;20205;-88
2021/01/25 04:24:19;;;;;;;4.45;3.13;;;;;;;;;;4877901;29;20186;-88
2021/01/25 04:27:24;;;;;;;7.75;3.65;;;;;;;;;;4878069;29;20221;-90
2021/01/25 04:30:28;;;;;;;6.40;3.38;;;;;;;;;;4898998;29;20198;-91
2021/01/25 04:33:32;;;;;;;6.55;4.18;;;;;;;;;;4888706;29;20213;-90
2021/01/25 04:36:36;;;;;;;5.13;4.00;;;;;;;;;;4877643;29;20228;-90
2021/01/25 04:39:40;;;;;;;4.57;3.50;;;;;;;;;;4888512;29;20181;-88
2021/01/25 04:42:46;;;;;;;7.40;3.95;;;;;;;;;;4877594;29;20182;-86
2021/01/25 04:45:50;;;;;;;5.32;3.72;;;;;;;;;;4898858;29;20225;-88
2021/01/25 04:48:54;;;;;;;6.47;4.82;;;;;;;;;;4898474;29;20186;-88
2021/01/25 04:57:01;;;;;;;7.18;4.50;;;;;;;;;;4878580;29;20218;-88
2021/01/25 05:00:07;;;;;;;7.53;5.10;;;;;;;;;;4898874;29;20178;-90
2021/01/25 05:03:12;;;;;;;5.65;4.00;;;;;;;;;;4887782;29;20193;-90
2021/01/25 05:06:16;;;;;;;4.57;3.90;;;;;;;;;;4887773;29;20228;-88
2021/01/25 05:09:20;;;;;;;6.70;4.53;;;;;;;;;;4887832;29;20189;-90
2021/01/25 05:12:40;;;;;;;7.00;4.60;;;;;;;;;;4876175;29;20216;-87
2021/01/25 05:15:50;;;;;;;9.93;4.38;;;;;;;;;;4876432;29;20225;-87
2021/01/25 05:18:57;;;;;;;8.23;5.35;;;;;;;;;;4887401;29;20186;-87
2021/01/25 05:22:01;;;;;;;13.95;5.72;;;;;;;;;;4876551;29;20178;-87
2021/01/25 05:25:10;;;;;;;9.20;5.45;;;;;;;;;;4887322;29;20185;-87
2021/01/25 05:28:16;;;;;;;8.73;5.80;;;;;;;;;;4886785;29;20182;-86
2021/01/25 05:31:22;;;;;;;7.85;5.13;;;;;;;;;;4876334;29;20201;-87
2021/01/25 05:34:27;;;;;;;4.90;3.90;;;;;;;;;;4887221;29;20182;-87
2021/01/25 05:37:35;;;;;;;7.47;4.43;;;;;;;;;;4897952;29;20181;-87
2021/01/25 05:40:39;;;;;;;6.60;3.73;;;;;;;;;;4897709;29;20559;-87
2021/01/25 05:43:45;;;;;;;5.60;3.87;;;;;;;;;;4872049;29;20611;-86
2021/01/25 05:46:49;;;;;;;5.68;3.55;;;;;;;;;;4849904;29;21197;-86
2021/01/25 05:49:53;;;;;;;6.47;3.70;;;;;;;;;;4871304;29;20187;-86
2021/01/25 05:53:00;;;;;;;4.20;3.35;;;;;;;;;;4850225;29;20215;-86
2021/01/25 05:56:09;;;;;;;3.85;3.03;;;;;;;;;;4866316;29;20229;-87
2021/01/25 05:59:13;;;;;;;8.60;3.40;;;;;;;;;;4868473;29;20191;-87
2021/01/25 06:02:18;;;;;;;6.82;3.35;;;;;;;;;;4879218;29;20206;-86
2021/01/25 06:05:33;;;;;;;4.63;3.58;;;;;;;;;;4868059;29;20187;-86
2021/01/25 06:08:51;;;;;;;5.37;3.30;;;;;;;;;;4868702;29;20186;-86
2021/01/25 06:12:03;;;;;;;6.13;3.73;;;;;;;;;;4880118;29;20544;-87
2021/01/25 06:15:18;;;;;;;6.68;3.60;;;;;;;;;;4868212;29;20531;-86
2021/01/25 06:18:22;;;;;;;3.92;3.10;;;;;;;;;;4868523;29;20507;-87
2021/01/25 06:21:32;;;;;;;4.90;3.40;;;;;;;;;;4868462;29;20190;-87
2021/01/25 06:24:38;;;;;;;9.30;5.07;;;;;;;;;;4879243;29;20552;-87
2021/01/25 06:27:44;;;;;;;6.37;3.87;;;;;;;;;;4868316;29;20876;-87
2021/01/25 06:30:49;;;;;;;7.90;4.33;;;;;;;;;;4868276;29;20551;-88
2021/01/25 06:33:53;;;;;;;5.47;3.90;;;;;;;;;;4868291;29;20662;-87
2021/01/25 06:37:00;;;;;;;7.30;4.33;;;;;;;;;;4867621;29;20638;-87
2021/01/25 06:40:09;;;;;;;6.53;4.10;;;;;;;;;;4870455;29;20555;-87
2021/01/25 06:43:15;;;;;;;5.03;3.67;;;;;;;;;;4871471;29;20598;-88
2021/01/25 06:46:20;;;;;;;6.63;4.03;;;;;;;;;;4871208;29;20622;-87
2021/01/25 06:49:26;;;;;;;8.80;4.27;;;;;;;;;;4871401;29;21082;-87
2021/01/25 06:52:32;;;;;;;6.10;3.90;;;;;;;;;;4891583;29;20601;-88
2021/01/25 06:55:43;;;;;;;6.23;4.10;;;;;;;;;;4891979;29;20629;-88
2021/01/25 06:58:49;;;;;;;5.70;3.67;;;;;;;;;;4915926;29;20972;-88
2021/01/25 07:01:54;;;;;;;4.23;3.37;;;;;;;;;;4916268;29;21099;-87
2021/01/25 07:04:59;;;;;;;4.87;3.70;;;;;;;;;;4916317;29;20615;-87
2021/01/25 07:08:19;;;;;;;6.40;3.73;;;;;;;;;;4927267;29;20608;-88
2021/01/25 07:11:26;;;;;;;9.17;6.93;;;;;;;;;;4938155;29;20549;-87
2021/01/25 07:14:32;;;;;;;8.73;5.47;;;;;;;;;;4927396;29;20600;-87
2021/01/25 07:17:37;;;;;;;7.23;4.30;;;;;;;;;;4937773;29;20897;-88
2021/01/25 07:20:46;;;;;;;5.57;3.30;;;;;;;;;;4916772;29;20537;-88
2021/01/25 07:23:52;;;;;;;7.37;4.13;;;;;;;;;;4916159;29;20541;-88
2021/01/25 07:26:58;;;;;;;5.87;3.40;;;;;;;;;;4916075;29;20620;-87
2021/01/25 07:30:03;;;;;;;4.80;3.23;;;;;;;;;;4926880;29;20541;-88
2021/01/25 07:33:07;;;;;;;5.90;3.50;;;;;;;;;;4915880;29;20596;-87
2021/01/25 07:36:12;;;;;;;7.80;4.63;;;;;;;;;;4926467;29;20631;-87
2021/01/25 07:39:17;;;;;;;8.20;5.63;;;;;;;;;;4926767;29;20936;-87
2021/01/25 07:42:22;;;;;;;6.87;4.43;;;;;;;;;;4884764;29;20633;-85
2021/01/25 07:45:26;;;;;;;4.70;3.37;;;;;;;;;;4896194;29;20629;-84
2021/01/25 07:48:30;;;;;;;4.47;3.40;;;;;;;;;;4879588;29;20546;-85
2021/01/25 07:51:37;;;;;;;12.07;6.27;;;;;;;;;;4889660;29;20542;-84
2021/01/25 07:54:41;;;;;;;11.20;6.43;;;;;;;;;;4879075;29;20628;-84
2021/01/25 07:57:45;;;;;;;14.40;7.97;;;;;;;;;;4879093;29;20558;-84
2021/01/25 08:00:49;;;;;;;14.17;7.87;;;;;;;;;;4878340;29;20945;-84
2021/01/25 08:04:04;;;;;;;8.23;4.27;;;;;;;;;;4889504;29;21172;-84
2021/01/25 08:07:08;;;;;;;8.53;3.77;;;;;;;;;;4877861;29;20637;-84
2021/01/25 08:10:14;;;;;;;10.17;4.90;;;;;;;;;;4889419;29;20542;-85
2021/01/25 08:13:24;;;;;;;3.17;2.40;;;;;;;;;;4878844;29;20598;-84
2021/01/25 08:16:35;;;;;;;6.00;2.90;;;;;;;;;;4878432;29;20629;-84
2021/01/25 08:19:53;;;;;;;3.50;2.43;;;;;;;;;;4878402;29;20550;-85
2021/01/25 08:23:19;;;;;;;4.20;2.70;;;;;;;;;;4889295;29;20550;-84
2021/01/25 08:26:26;;;;;;;6.53;3.90;;;;;;;;;;4878813;29;21180;-84
2021/01/25 08:29:30;;;;;;;4.83;3.57;;;;;;;;;;4900868;29;20554;-83
2021/01/25 08:32:46;;;;;;;7.50;3.50;;;;;;;;;;4909123;29;20592;-84
2021/01/25 08:35:50;;;;;;;8.73;3.90;;;;;;;;;;4896294;29;20645;-84
2021/01/25 08:38:55;;;;;;;6.00;3.00;;;;;;;;;;4906071;29;21146;-84
2021/01/25 08:41:59;;;;;;;5.13;2.90;;;;;;;;;;4905470;29;20580;-84
2021/01/25 08:45:08;;;;;;;10.10;4.40;;;;;;;;;;4909601;29;20541;-85
2021/01/25 08:48:13;;;;;;;4.50;3.47;;;;;;;;;;4909896;29;20562;-85
2021/01/25 08:51:37;;;;;;;4.70;2.83;;;;;;;;;;4938192;29;20604;-85
2021/01/25 08:54:41;;;;;;;4.70;2.73;;;;;;;;;;4927529;29;20648;-85
2021/01/25 08:57:46;;;;;;;5.17;3.40;;;;;;;;;;4938285;29;20615;-85
2021/01/25 09:00:50;;;;;;;3.33;2.80;;;;;;;;;;4898569;29;20561;-84
2021/01/25 09:03:58;;;;;;;4.17;2.87;;;;;;;;;;4928006;29;20596;-85
2021/01/25 09:07:02;;;;;;;4.47;2.90;;;;;;;;;;4890637;29;20645;-85
2021/01/25 09:10:08;;;;;;;4.53;3.23;;;;;;;;;;4893313;29;20546;-86
2021/01/25 09:13:12;;;;;;;2.73;2.40;;;;;;;;;;4906187;29;20616;-86
2021/01/25 09:16:17;;;;;;;3.70;2.60;;;;;;;;;;4923153;29;20627;-85
2021/01/25 09:19:21;;;;;;;4.17;3.00;;;;;;;;;;4917045;29;20612;-85
2021/01/25 09:22:26;;;;;;;5.20;3.70;;;;;;;;;;4928002;29;20554;-84
2021/01/25 09:25:31;;;;;;;6.50;3.77;;;;;;;;;;4916588;29;20646;-84
2021/01/25 09:28:36;;;;;;;5.53;3.40;;;;;;;;;;4912157;29;20957;-83
2021/01/25 09:31:40;;;;;;;8.70;3.37;;;;;;;;;;4903103;29;21021;-83
2021/01/25 09:34:44;;;;;;;4.60;3.13;;;;;;;;;;4890012;29;21145;-83
2021/01/25 09:37:49;;;;;;;10.10;3.70;;;;;;;;;;4877007;29;20550;-84
2021/01/25 09:40:54;;;;;;;7.57;3.50;;;;;;;;;;4925328;29;20552;-83
2021/01/25 09:43:57;;;;;;;3.97;3.00;;;;;;;;;;4925509;29;20600;-83
2021/01/25 09:47:03;;;;;;;4.47;3.43;;;;;;;;;;4935880;29;20623;-83
2021/01/25 09:50:10;;;;;;;5.20;3.07;;;;;;;;;;4896892;29;20642;-83
2021/01/25 09:53:15;;;;;;;8.20;3.60;;;;;;;;;;4895805;29;20609;-83
2021/01/25 09:56:19;;;;;;;5.47;3.40;;;;;;;;;;4917520;29;20621;-83
2021/01/25 09:59:24;;;;;;;7.70;3.40;;;;;;;;;;4895715;29;20565;-84
2021/01/25 10:02:28;;;;;;;6.57;3.60;;;;;;;;;;4906552;29;21073;-84
2021/01/25 10:05:32;;;;;;;7.83;3.10;;;;;;;;;;4906550;29;21016;-84
2021/01/25 10:08:37;;;;;;;6.03;3.40;;;;;;;;;;4906442;29;20568;-83
2021/01/25 10:11:41;;;;;;;3.30;2.93;;;;;;;;;;4895882;29;20605;-84
2021/01/25 10:14:46;;;;;;;3.93;3.00;;;;;;;;;;4927210;29;20636;-84
2021/01/25 10:17:50;;;;;;;6.40;2.90;;;;;;;;;;4930699;29;20603;-84
2021/01/25 10:20:54;;;;;;;3.80;2.97;;;;;;;;;;4928629;29;20974;-83
2021/01/25 10:23:58;;;;;;;6.50;2.80;;;;;;;;;;4890953;29;20598;-84
2021/01/25 10:27:03;;;;;;;3.93;2.83;;;;;;;;;;4901832;29;20621;-84
2021/01/25 10:30:10;;;;;;;3.40;2.50;;;;;;;;;;4880004;29;20605;-85
2021/01/25 10:33:14;;;;;;;4.47;2.40;;;;;;;;;;4913925;29;20620;-84
2021/01/25 10:36:18;;;;;;;4.63;3.20;;;;;;;;;;4910063;29;20629;-84
2021/01/25 10:39:23;;;;;;;2.73;2.53;;;;;;;;;;4920525;29;20549;-83
2021/01/25 10:42:28;;;;;;;4.07;3.10;;;;;;;;;;4908241;29;20589;-83
2021/01/25 10:45:32;;;;;;;4.73;3.03;;;;;;;;;;4920048;29;20628;-83
2021/01/25 10:48:36;;;;;;;3.97;2.70;;;;;;;;;;4899189;29;20545;-83
2021/01/25 10:51:40;;;;;;;5.03;2.77;;;;;;;;;;4901359;29;20636;-83
2021/01/25 10:54:45;;;;;;;4.20;2.67;;;;;;;;;;4901587;29;20598;-85
2021/01/25 10:57:49;;;;;;;4.90;2.80;;;;;;;;;;4901143;29;20558;-83
2021/01/25 11:00:54;;;;;;;4.67;2.70;;;;;;;;;;4890830;29;21077;-83
2021/01/25 11:03:58;;;;;;;5.13;3.17;;;;;;;;;;4914338;29;20601;-84
2021/01/25 11:07:03;;;;;;;4.63;3.30;;;;;;;;;;4914883;29;20659;-84
2021/01/25 11:10:10;;;;;;;6.10;5.60;;;;;;;;;;4908557;29;20616;-84
2021/01/25 11:13:15;;;;;;;4.03;2.87;;;;;;;;;;4898598;29;20605;-84
2021/01/25 11:16:19;;;;;;;3.47;2.60;;;;;;;;;;4910865;29;20625;-87
2021/01/25 11:19:23;;;;;;;4.07;3.27;;;;;;;;;;4897443;29;20612;-86
2021/01/25 11:22:27;;;;;;;6.17;3.30;;;;;;;;;;4907868;29;20608;-87
2021/01/25 11:25:32;;;;;;;3.80;2.87;;;;;;;;;;4926347;29;20655;-86
2021/01/25 11:28:36;;;;;;;8.60;4.13;;;;;;;;;;4911512;29;20592;-87
2021/01/25 11:31:41;;;;;;;6.20;4.63;;;;;;;;;;4927367;29;20548;-85
2021/01/25 11:34:46;;;;;;;3.83;3.03;;;;;;;;;;4889724;29;20594;-86
2021/01/25 11:37:50;;;;;;;4.10;2.80;;;;;;;;;;4889032;29;20558;-86
2021/01/25 11:40:55;;;;;;;4.80;3.40;;;;;;;;;;4878778;29;20546;-86
2021/01/25 11:43:59;;;;;;;5.90;3.43;;;;;;;;;;4887869;29;20590;-87
2021/01/25 11:47:03;;;;;;;5.90;3.97;;;;;;;;;;4896443;29;20648;-87
2021/01/25 11:50:11;;;;;;;3.90;3.20;;;;;;;;;;4896668;29;20608;-87
2021/01/25 11:53:16;;;;;;;3.63;2.67;;;;;;;;;;4911324;29;20624;-88
2021/01/25 11:56:20;;;;;;;4.90;2.63;;;;;;;;;;4907524;29;20660;-87
2021/01/25 11:59:24;;;;;;;3.77;2.80;;;;;;;;;;4953060;23;21019;-85
2021/01/25 12:02:28;;;;;;;3.00;2.70;;;;;;;;;;4926866;29;21128;-84
2021/01/25 12:05:33;;;;;;;4.60;2.77;;;;;;;;;;4937517;29;20540;-84
2021/01/25 12:08:37;;;;;;;4.80;2.97;;;;;;;;;;4926889;29;21213;-85
2021/01/25 12:12:08;;;;;;;3.37;3.07;;;;;;;;;;4926308;29;20549;-86
2021/01/25 12:15:13;;;;;;;4.33;3.00;;;;;;;;;;4925027;29;20596;-85
2021/01/25 12:18:17;;;;;;;3.90;3.07;;;;;;;;;;4917349;29;20624;-86
2021/01/25 12:21:21;;;;;;;4.80;3.10;;;;;;;;;;4928299;29;20562;-86
2021/01/25 12:24:26;;;;;;;4.83;2.90;;;;;;;;;;4927609;29;20548;-87
2021/01/25 12:27:30;;;;;;;3.20;2.67;;;;;;;;;;4938479;29;20552;-87
2021/01/25 12:30:34;;;;;;;5.73;3.60;;;;;;;;;;4917006;29;20537;-87
2021/01/25 12:33:38;;;;;;;6.47;3.80;;;;;;;;;;4926694;29;20576;-87
2021/01/25 12:36:43;;;;;;;7.10;5.13;;;;;;;;;;4913846;29;20659;-87
2021/01/25 12:39:47;;;;;;;5.63;4.33;;;;;;;;;;4937202;29;20656;-87
2021/01/25 12:42:52;;;;;;;6.73;4.47;;;;;;;;;;4914956;29;21146;-87
2021/01/25 12:45:56;;;;;;;6.03;4.50;;;;;;;;;;4936550;29;20536;-87
2021/01/25 12:49:03;;;;;;;10.23;5.00;;;;;;;;;;4948480;28;20649;-87
2021/01/25 12:52:07;;;;;;;5.20;4.53;;;;;;;;;;4925190;29;21165;-87
2021/01/25 12:55:12;;;;;;;8.17;6.03;;;;;;;;;;4914793;29;20937;-87
2021/01/25 12:58:16;;;;;;;7.13;5.37;;;;;;;;;;4914281;29;20635;-87
2021/01/25 13:01:20;;;;;;;5.23;4.50;;;;;;;;;;4943921;28;20598;-87
2021/01/25 13:04:25;;;;;;;6.70;5.43;;;;;;;;;;4933603;29;20547;-88
2021/01/25 13:07:29;;;;;;;5.90;4.63;;;;;;;;;;4955098;29;20555;-88
2021/01/25 13:10:34;;;;;;;5.90;4.80;;;;;;;;;;4932931;29;20551;-88
2021/01/25 13:13:38;;;;;;;5.30;4.70;;;;;;;;;;4933105;29;20555;-88
2021/01/25 13:16:42;;;;;;;6.07;5.10;;;;;;;;;;4934618;28;20595;-88
2021/01/25 13:19:46;;;;;;;7.03;5.73;;;;;;;;;;4974714;28;20622;-87
2021/01/25 13:22:51;;;;;;;5.23;4.67;;;;;;;;;;4952294;28;20555;-87
2021/01/25 13:25:55;;;;;;;5.67;4.73;;;;;;;;;;4963460;28;20546;-87
2021/01/25 13:28:59;;;;;;;5.93;4.70;;;;;;;;;;4951824;28;21200;-86
2021/01/25 13:32:03;;;;;;;5.20;4.53;;;;;;;;;;4973899;28;20554;-86
2021/01/25 13:35:11;;;;;;;6.40;4.53;;;;;;;;;;4955882;28;20634;-87
2021/01/25 13:38:16;;;;;;;6.50;5.00;;;;;;;;;;4944130;29;21180;-85
2021/01/25 13:41:20;;;;;;;6.00;4.73;;;;;;;;;;4924469;29;20631;-86
2021/01/25 13:44:24;;;;;;;6.03;5.27;;;;;;;;;;4935770;29;20596;-86
2021/01/25 13:47:29;;;;;;;5.43;4.73;;;;;;;;;;4935997;29;20544;-86
2021/01/25 13:50:33;;;;;;;6.27;5.00;;;;;;;;;;4921386;29;20595;-84
2021/01/25 13:53:38;;;;;;;6.23;4.83;;;;;;;;;;4918156;29;20548;-84
2021/01/25 13:56:43;;;;;;;6.43;5.70;;;;;;;;;;4939277;29;20615;-84
2021/01/25 13:59:47;;;;;;;6.37;5.00;;;;;;;;;;4917809;29;20647;-84
2021/01/25 14:02:51;;;;;;;7.53;5.27;;;;;;;;;;4939657;29;20880;-84
2021/01/25 14:05:55;;;;;;;6.50;5.57;;;;;;;;;;4928425;29;20908;-85
2021/01/25 14:09:00;;;;;;;7.90;4.87;;;;;;;;;;4945660;29;21224;-85
2021/01/25 14:12:05;;;;;;;5.87;5.27;;;;;;;;;;4929695;29;20990;-85
2021/01/25 14:15:10;;;;;;;7.70;5.77;;;;;;;;;;4928395;29;20564;-86
2021/01/25 14:18:15;;;;;;;8.13;5.80;;;;;;;;;;4933161;29;20654;-86
2021/01/25 14:21:19;;;;;;;7.20;5.90;;;;;;;;;;4947616;29;20555;-85
2021/01/25 14:24:23;;;;;;;9.57;7.10;;;;;;;;;;4936546;29;20547;-85
2021/01/25 14:27:28;;;;;;;8.97;6.03;;;;;;;;;;4937036;29;20607;-85
2021/01/25 14:30:32;;;;;;;12.37;7.83;;;;;;;;;;4958276;29;20606;-85
2021/01/25 14:33:37;;;;;;;12.97;6.93;;;;;;;;;;4947039;29;20931;-85
2021/01/25 14:36:41;;;;;;;20.87;11.90;;;;;;;;;;4958226;29;20603;-85
2021/01/25 14:39:45;;;;;;;11.43;8.10;;;;;;;;;;4936376;29;20630;-85
2021/01/25 14:42:52;;;;;;;12.57;8.00;;;;;;;;;;4958438;29;20543;-85
2021/01/25 14:45:57;;;;;;;9.70;7.17;;;;;;;;;;4947158;29;20552;-84
2021/01/25 14:49:01;;;;;;;9.00;6.93;;;;;;;;;;4947260;29;20619;-85
2021/01/25 14:52:09;;;;;;;13.37;8.77;;;;;;;;;;4958454;28;20551;-85
2021/01/25 14:55:15;;;;;;;10.80;7.10;;;;;;;;;;4936347;29;20543;-85
2021/01/25 14:58:19;;;;;;;8.73;6.20;;;;;;;;;;4946705;29;20646;-85
2021/01/25 15:01:25;;;;;;;11.90;7.83;;;;;;;;;;4957375;29;21086;-85
2021/01/25 15:04:29;;;;;;;13.83;8.17;;;;;;;;;;4935621;29;20543;-85
2021/01/25 15:07:33;;;;;;;9.30;7.20;;;;;;;;;;4947133;29;21066;-85
2021/01/25 15:10:38;;;;;;;10.83;8.00;;;;;;;;;;4935731;29;20888;-84
2021/01/25 15:13:42;;;;;;;14.17;10.10;;;;;;;;;;4958416;28;20555;-85
2021/01/25 15:16:46;;;;;;;11.67;9.43;;;;;;;;;;4946487;29;20603;-84
2021/01/25 15:19:51;;;;;;;11.97;8.63;;;;;;;;;;4935149;29;20626;-85
2021/01/25 15:22:57;;;;;;;9.07;7.63;;;;;;;;;;4957196;29;20548;-84
2021/01/25 15:26:01;;;;;;;11.23;8.27;;;;;;;;;;4946301;29;20544;-84
2021/01/25 15:29:06;;;;;;;15.33;9.37;;;;;;;;;;4935148;29;20626;-84
2021/01/25 15:32:11;;;;;;;130.93;76.97;;;;;;;;;;4956979;29;20547;-84
2021/01/25 15:35:17;;;;;;;30.97;22.60;;;;;;;;;;4956883;29;20610;-85
2021/01/25 15:38:21;;;;;;;17.77;12.90;;;;;;;;;;4957050;28;20619;-84
2021/01/25 15:41:51;;;;;;;28.20;18.90;;;;;;;;;;4937369;29;20555;-88
2021/01/25 15:44:55;;;;;;;19.13;13.87;;;;;;;;;;4926875;29;20548;-84
2021/01/25 15:48:00;;;;;;;14.33;11.37;;;;;;;;;;4927406;29;20561;-86
2021/01/25 15:51:07;;;;;;;13.60;10.30;;;;;;;;;;4922410;29;20609;-85
2021/01/25 15:54:12;;;;;;;14.90;10.30;;;;;;;;;;4936195;29;20612;-85
2021/01/25 15:57:16;;;;;;;15.03;10.43;;;;;;;;;;4937498;29;20615;-85
2021/01/25 16:00:22;;;;;;;11.30;8.90;;;;;;;;;;4926813;29;21005;-86
2021/01/25 16:03:27;;;;;;;12.33;9.13;;;;;;;;;;4926851;29;20532;-86
2021/01/25 16:06:34;;;;;;;13.60;9.53;;;;;;;;;;4926916;29;20540;-89
2021/01/25 16:09:38;;;;;;;32.07;16.67;;;;;;;;;;4934108;29;20646;-86
2021/01/25 16:12:43;;;;;;;26.23;14.00;;;;;;;;;;4935730;29;20606;-88
2021/01/25 16:15:47;;;;;;;38.97;21.20;;;;;;;;;;4945387;29;20621;-88
2021/01/25 16:18:51;;;;;;;53.67;24.67;;;;;;;;;;4944797;29;20626;-87
2021/01/25 16:21:55;;;;;;;52.15;29.00;;;;;;;;;;4934914;29;20711;-88
2021/01/25 16:25:00;;;;;;;42.45;29.02;;;;;;;;;;4926281;29;20729;-89
2021/01/25 16:28:04;;;;;;;42.80;28.33;;;;;;;;;;4915007;29;20705;-91
2021/01/25 16:31:11;;;;;;;37.85;26.05;;;;;;;;;;4913549;29;20725;-89
2021/01/25 16:34:15;;;;;;;84.03;46.63;;;;;;;;;;4925338;29;20705;-88
2021/01/25 16:37:21;;;;;;;112.18;55.78;;;;;;;;;;4925251;29;20728;-89
2021/01/25 16:40:26;;;;;;;39.10;25.92;;;;;;;;;;4914705;29;20705;-90
2021/01/25 16:43:30;;;;;;;14.73;10.93;;;;;;;;;;4925631;29;20555;-88
2021/01/25 16:46:34;;;;;;;17.10;11.20;;;;;;;;;;4925623;29;20628;-90
2021/01/25 16:49:38;;;;;;;13.67;10.33;;;;;;;;;;4925603;29;20642;-87
2021/01/25 16:52:43;;;;;;;17.73;10.53;;;;;;;;;;4925540;29;20563;-87
2021/01/25 16:55:48;;;;;;;13.87;10.30;;;;;;;;;;4915534;29;20567;-89
2021/01/25 16:59:00;;;;;;;14.43;10.67;;;;;;;;;;4924447;29;21264;-89
2021/01/25 17:02:04;;;;;;;17.33;11.80;;;;;;;;;;4914991;29;20606;-86
2021/01/25 17:05:11;;;;;;;21.53;15.40;;;;;;;;;;4925254;29;20697;-87
2021/01/25 17:08:16;;;;;;;15.87;12.47;;;;;;;;;;4914007;29;20616;-87
2021/01/25 17:11:20;;;;;;;16.03;11.80;;;;;;;;;;4913998;29;20908;-87
2021/01/25 17:14:24;;;;;;;13.70;10.83;;;;;;;;;;4936284;29;20548;-87
2021/01/25 17:17:28;;;;;;;12.20;10.43;;;;;;;;;;4925090;29;20604;-87
2021/01/25 17:20:32;;;;;;;13.27;10.60;;;;;;;;;;4924867;29;20920;-87
2021/01/25 17:23:51;;;;;;;17.70;11.40;;;;;;;;;;4929798;29;20552;-90
2021/01/25 17:26:56;;;;;;;16.97;11.97;;;;;;;;;;4914097;29;20560;-89
2021/01/25 17:30:00;;;;;;;15.43;12.17;;;;;;;;;;4914041;29;20636;-89
2021/01/25 17:33:06;;;;;;;16.73;13.93;;;;;;;;;;4935495;29;20573;-89
2021/01/25 17:36:11;;;;;;;14.47;11.90;;;;;;;;;;4914181;29;20612;-89
2021/01/25 17:39:15;;;;;;;16.50;12.63;;;;;;;;;;4936815;29;21092;-89
2021/01/25 17:42:20;;;;;;;16.00;12.73;;;;;;;;;;4920269;29;20591;-89
2021/01/25 17:45:25;;;;;;;17.97;12.67;;;;;;;;;;4924838;29;20540;-89
2021/01/25 17:48:29;;;;;;;18.83;12.60;;;;;;;;;;4925184;29;20628;-89
2021/01/25 17:51:33;;;;;;;17.40;13.43;;;;;;;;;;4915118;29;20555;-89
2021/01/25 17:54:40;;;;;;;17.23;13.07;;;;;;;;;;4925711;29;20591;-89
2021/01/25 17:57:48;;;;;;;17.20;13.17;;;;;;;;;;4956081;28;20932;-87
2021/01/25 18:00:52;;;;;;;18.10;12.30;;;;;;;;;;4933050;29;20547;-87
2021/01/25 18:03:56;;;;;;;19.63;13.50;;;;;;;;;;4932554;29;20690;-86
2021/01/25 18:07:00;;;;;;;25.27;18.47;;;;;;;;;;4932913;29;21081;-86
2021/01/25 18:10:06;;;;;;;22.73;16.27;;;;;;;;;;4932722;29;20625;-88
2021/01/25 18:13:10;;;;;;;32.03;20.40;;;;;;;;;;4932518;29;20628;-87
2021/01/25 18:16:14;;;;;;;23.63;17.10;;;;;;;;;;4954527;29;20613;-87
2021/01/25 18:19:19;;;;;;;22.43;16.23;;;;;;;;;;4913580;29;20654;-87
2021/01/25 18:22:23;;;;;;;21.43;15.30;;;;;;;;;;4935100;29;20933;-87
2021/01/25 18:25:27;;;;;;;18.43;14.07;;;;;;;;;;4913665;29;20548;-87
2021/01/25 18:28:31;;;;;;;21.67;14.43;;;;;;;;;;4913717;29;20627;-87
2021/01/25 18:31:38;;;;;;;19.57;14.60;;;;;;;;;;4913322;29;20563;-87